Time;durP1;ratioP1;P1;durP2;ratioP2;P2;SDS_P1;SDS_P2;PMS_P1;PMS_P2;Temp;Humidity;BMP_temperature;BMP_pressure;BME280_temperature;BME280_humidity;BME280_pressure;Samples;Min_cycle;Max_cycle;Signal;HPM_P1;HPM_P2
2023/10/08 00:02:11;;;;;;;8.70;4.95;;;;;;;8.31;88.00;93582.03;5061285;28;20044;-74
2023/10/08 00:04:38;;;;;;;7.50;4.93;;;;;;;8.25;87.50;93573.31;5063290;28;20052;-74
2023/10/08 00:07:08;;;;;;;8.23;5.03;;;;;;;8.29;88.14;93579.66;5065395;28;20102;-74
2023/10/08 00:09:36;;;;;;;9.63;5.03;;;;;;;8.34;87.55;93576.53;5061461;28;20094;-74
2023/10/08 00:12:03;;;;;;;8.30;4.78;;;;;;;8.12;86.60;93558.66;5054778;28;20091;-73
2023/10/08 00:14:32;;;;;;;8.05;5.15;;;;;;;8.22;86.95;93562.66;5063258;28;20208;-73
2023/10/08 00:17:00;;;;;;;7.97;4.82;;;;;;;8.17;86.89;93568.34;5064173;28;20135;-73
2023/10/08 00:19:33;;;;;;;8.27;4.68;;;;;;;8.06;86.49;93566.28;5059593;28;20106;-73
2023/10/08 00:22:05;;;;;;;6.95;4.18;;;;;;;8.06;86.74;93573.97;5063014;28;20052;-73
2023/10/08 00:24:33;;;;;;;8.13;3.75;;;;;;;7.96;87.68;93569.16;5062294;28;20044;-73
2023/10/08 00:27:03;;;;;;;8.20;4.25;;;;;;;7.96;87.65;93569.16;5063331;28;20049;-73
2023/10/08 00:29:31;;;;;;;6.55;4.05;;;;;;;8.01;88.23;93564.28;5060563;28;20131;-73
2023/10/08 00:31:58;;;;;;;7.38;4.20;;;;;;;7.92;88.18;93555.16;5067458;28;20398;-73
2023/10/08 00:34:27;;;;;;;6.32;4.10;;;;;;;7.88;88.14;93552.94;5061482;28;20049;-72
2023/10/08 00:36:53;;;;;;;7.47;4.40;;;;;;;7.87;87.95;93545.50;5064574;28;20090;-73
2023/10/08 00:39:23;;;;;;;8.50;3.90;;;;;;;7.94;88.76;93558.31;5059978;28;20060;-72
2023/10/08 00:41:58;;;;;;;6.60;3.90;;;;;;;7.96;87.79;93558.94;5068086;28;20068;-73
2023/10/08 00:44:29;;;;;;;6.82;4.15;;;;;;;7.87;87.76;93551.38;5057488;28;20045;-73
2023/10/08 00:47:00;;;;;;;6.07;3.60;;;;;;;7.52;87.51;93500.16;5064377;28;20052;-73
2023/10/08 00:49:47;;;;;;;5.13;3.45;;;;;;;7.84;87.63;93546.66;5067495;28;20056;-74
2023/10/08 00:52:29;;;;;;;7.68;3.83;;;;;;;7.80;87.56;93542.06;5064395;28;20062;-73
2023/10/08 00:55:09;;;;;;;5.63;3.40;;;;;;;7.73;87.87;93537.69;5060634;28;20046;-73
2023/10/08 00:57:42;;;;;;;5.55;3.50;;;;;;;7.65;88.00;93525.03;5063835;28;20044;-73
2023/10/08 01:00:17;;;;;;;4.93;3.38;;;;;;;7.67;89.12;93535.88;5063568;28;20072;-73
2023/10/08 01:02:46;;;;;;;6.10;3.50;;;;;;;7.68;89.12;93531.56;5066737;28;20060;-73
2023/10/08 01:05:18;;;;;;;6.35;3.90;;;;;;;7.69;88.94;93539.03;5064742;28;20322;-73
2023/10/08 01:07:48;;;;;;;7.70;4.30;;;;;;;7.64;88.99;93536.22;5063575;28;20062;-73
2023/10/08 01:10:19;;;;;;;6.07;3.45;;;;;;;7.60;88.49;93535.78;5060936;28;20080;-73
2023/10/08 01:13:03;;;;;;;7.22;3.55;;;;;;;7.56;88.70;93533.81;5068069;28;20054;-73
2023/10/08 01:15:35;;;;;;;6.47;3.80;;;;;;;7.53;89.56;93534.94;5066292;28;20064;-73
2023/10/08 01:18:05;;;;;;;8.60;4.32;;;;;;;7.47;89.94;93528.03;5060344;28;20151;-73
2023/10/08 01:20:36;;;;;;;6.80;4.50;;;;;;;7.56;91.20;93523.56;5059308;28;20049;-73
2023/10/08 01:23:09;;;;;;;7.20;4.13;;;;;;;7.47;90.83;93512.69;5061638;28;20076;-73
2023/10/08 01:25:37;;;;;;;6.95;4.13;;;;;;;7.48;90.45;93516.81;5059667;28;20060;-73
2023/10/08 01:28:09;;;;;;;7.18;4.00;;;;;;;7.48;90.82;93521.94;5061201;28;20057;-73
2023/10/08 01:30:41;;;;;;;8.82;4.82;;;;;;;7.47;90.99;93516.03;5064881;28;20090;-73
2023/10/08 01:33:12;;;;;;;6.60;3.60;;;;;;;7.58;90.88;93519.06;5063677;28;20072;-73
2023/10/08 01:35:40;;;;;;;8.95;4.85;;;;;;;7.61;90.77;93518.69;5058672;28;20090;-73
2023/10/08 01:38:13;;;;;;;7.28;4.30;;;;;;;7.49;90.81;93518.38;5066797;28;20060;-73
2023/10/08 01:40:40;;;;;;;6.95;4.80;;;;;;;7.45;90.63;93501.84;5062022;28;20048;-73
2023/10/08 01:43:08;;;;;;;7.88;4.63;;;;;;;7.58;91.03;93524.97;5066968;28;20048;-73
2023/10/08 01:45:40;;;;;;;7.07;4.25;;;;;;;7.47;91.06;93515.25;5065947;28;20906;-73
2023/10/08 01:48:09;;;;;;;6.30;4.40;;;;;;;7.37;90.94;93512.19;5066206;28;20054;-73
2023/10/08 01:50:36;;;;;;;7.25;5.07;;;;;;;7.41;91.69;93523.63;5067360;28;20102;-73
2023/10/08 01:53:05;;;;;;;8.82;4.65;;;;;;;7.41;91.72;93521.06;5065153;28;20635;-73
2023/10/08 01:55:45;;;;;;;7.97;4.95;;;;;;;7.43;91.83;93531.91;5066941;28;20045;-73
2023/10/08 01:58:16;;;;;;;6.88;4.65;;;;;;;7.29;92.07;93519.00;5067439;28;20048;-73
2023/10/08 02:00:45;;;;;;;7.18;4.47;;;;;;;7.33;92.28;93529.66;5061759;28;20048;-73
2023/10/08 02:03:13;;;;;;;8.05;4.53;;;;;;;7.34;92.19;93513.34;5065235;28;20538;-73
2023/10/08 02:05:41;;;;;;;6.78;3.80;;;;;;;7.32;92.41;93512.75;5061893;28;20106;-73
2023/10/08 02:08:09;;;;;;;9.02;4.55;;;;;;;7.35;92.65;93523.38;5067562;28;20560;-73
2023/10/08 02:10:39;;;;;;;7.65;4.63;;;;;;;7.35;92.21;93530.25;5066658;28;20510;-74
2023/10/08 02:13:08;;;;;;;7.10;4.28;;;;;;;7.24;92.69;93526.41;5062184;28;20040;-73
2023/10/08 02:15:36;;;;;;;8.43;4.35;;;;;;;7.29;92.82;93523.31;5063688;28;20153;-73
2023/10/08 02:18:04;;;;;;;10.35;4.10;;;;;;;7.37;92.37;93524.97;5061600;28;20041;-73
2023/10/08 02:20:31;;;;;;;6.78;4.05;;;;;;;7.34;92.25;93519.25;5066144;28;20044;-73
2023/10/08 02:22:57;;;;;;;10.05;4.18;;;;;;;7.17;92.03;93498.25;5061470;28;20048;-73
2023/10/08 02:25:26;;;;;;;7.15;4.55;;;;;;;7.36;92.21;93511.38;5064409;28;20099;-73
2023/10/08 02:27:54;;;;;;;9.15;4.68;;;;;;;7.38;91.23;93514.56;5062082;28;20053;-73
2023/10/08 02:30:21;;;;;;;6.80;3.50;;;;;;;7.30;90.58;93507.00;5066455;28;20049;-73
2023/10/08 02:32:49;;;;;;;6.20;3.53;;;;;;;7.27;90.66;93509.94;5061263;28;20515;-73
2023/10/08 02:35:16;;;;;;;6.45;3.85;;;;;;;7.30;90.55;93504.44;5061187;28;20057;-73
2023/10/08 02:37:45;;;;;;;6.28;3.65;;;;;;;7.21;90.81;93508.88;5065963;28;20052;-73
2023/10/08 02:40:19;;;;;;;7.25;3.80;;;;;;;7.13;91.22;93498.78;5066472;28;20044;-73
2023/10/08 02:42:47;;;;;;;6.03;3.20;;;;;;;7.06;91.04;93508.94;5061116;28;20090;-73
2023/10/08 02:45:16;;;;;;;6.45;3.50;;;;;;;7.05;91.64;93504.78;5066644;28;20094;-73
2023/10/08 02:47:45;;;;;;;7.25;3.80;;;;;;;7.10;91.63;93507.59;5066105;28;20106;-73
2023/10/08 02:50:17;;;;;;;7.53;3.90;;;;;;;7.08;91.62;93512.88;5063220;28;20504;-73
2023/10/08 02:52:45;;;;;;;6.43;3.72;;;;;;;7.01;91.77;93508.69;5065136;28;20098;-73
2023/10/08 02:55:24;;;;;;;9.05;4.40;;;;;;;6.95;92.78;93510.97;5066431;28;20052;-75
2023/10/08 02:57:51;;;;;;;6.40;3.97;;;;;;;6.97;92.68;93515.09;5058510;28;20044;-75
2023/10/08 03:00:20;;;;;;;6.93;3.63;;;;;;;6.96;92.29;93522.00;5064426;28;20044;-75
2023/10/08 03:02:48;;;;;;;8.43;4.18;;;;;;;6.88;93.10;93522.88;5063243;28;20090;-75
2023/10/08 03:05:17;;;;;;;6.95;3.95;;;;;;;6.81;93.95;93510.03;5063625;28;20473;-75
2023/10/08 03:07:44;;;;;;;8.40;4.10;;;;;;;6.71;94.23;93496.75;5064020;28;20163;-74
2023/10/08 03:10:18;;;;;;;8.77;4.45;;;;;;;6.84;94.30;93524.19;5065832;28;20501;-74
2023/10/08 03:12:46;;;;;;;7.68;4.38;;;;;;;6.67;95.34;93503.97;5060153;28;20138;-75
2023/10/08 03:15:15;;;;;;;8.13;4.05;;;;;;;6.81;94.61;93512.59;5057982;28;20059;-74
2023/10/08 03:17:50;;;;;;;6.50;3.85;;;;;;;6.86;94.45;93527.38;5060105;28;20493;-75
2023/10/08 03:20:38;;;;;;;8.07;4.78;;;;;;;6.82;95.18;93521.06;5061767;28;20049;-75
2023/10/08 03:23:11;;;;;;;8.45;4.60;;;;;;;6.80;94.70;93511.00;5063526;28;20595;-75
2023/10/08 03:25:41;;;;;;;8.27;4.03;;;;;;;6.89;94.51;93531.34;5061184;28;20163;-74
2023/10/08 03:28:12;;;;;;;6.70;3.78;;;;;;;6.80;95.23;93517.88;5057841;28;20064;-75
2023/10/08 03:30:49;;;;;;;7.07;3.75;;;;;;;6.78;94.78;93507.84;5065228;28;20135;-75
2023/10/08 03:33:23;;;;;;;6.10;3.47;;;;;;;6.82;94.44;93509.06;5063172;28;20131;-75
2023/10/08 03:35:52;;;;;;;6.80;3.92;;;;;;;6.77;94.82;93508.03;5063474;28;20519;-75
2023/10/08 03:38:28;;;;;;;7.32;4.20;;;;;;;6.81;94.61;93512.59;5055656;28;20048;-75
2023/10/08 03:41:03;;;;;;;7.22;4.50;;;;;;;6.86;94.01;93521.47;5060785;28;20056;-75
2023/10/08 03:43:42;;;;;;;6.75;4.43;;;;;;;6.80;93.74;93513.56;5065429;28;20045;-75
2023/10/08 03:46:15;;;;;;;8.35;5.15;;;;;;;6.68;94.16;93500.44;5060919;28;20108;-74
2023/10/08 03:48:44;;;;;;;15.00;6.03;;;;;;;6.73;93.97;93509.34;5065064;28;20048;-74
2023/10/08 03:51:12;;;;;;;10.02;6.38;;;;;;;6.74;94.53;93516.81;5063325;28;20048;-75
2023/10/08 03:53:57;;;;;;;10.15;6.20;;;;;;;6.68;94.55;93500.44;5061814;28;20044;-75
2023/10/08 03:56:25;;;;;;;10.33;5.43;;;;;;;6.68;94.49;93494.56;5061786;28;20669;-73
2023/10/08 03:58:54;;;;;;;9.90;5.07;;;;;;;6.58;94.85;93487.19;5060810;28;20294;-73
2023/10/08 04:01:24;;;;;;;11.13;4.93;;;;;;;6.63;94.58;93492.53;5062901;28;20053;-73
2023/10/08 04:03:59;;;;;;;10.32;5.35;;;;;;;6.37;94.58;93454.72;5061372;28;20044;-73
2023/10/08 04:06:37;;;;;;;10.27;5.40;;;;;;;6.43;96.91;93499.94;5066432;28;20048;-74
2023/10/08 04:09:16;;;;;;;12.07;5.95;;;;;;;6.39;96.53;93491.84;5063714;28;20052;-73
2023/10/08 04:11:53;;;;;;;7.90;5.22;;;;;;;6.39;97.35;93501.28;5068775;28;20042;-73
2023/10/08 04:14:21;;;;;;;8.32;5.03;;;;;;;6.38;97.11;93495.38;5066145;28;20049;-73
2023/10/08 04:16:51;;;;;;;10.65;4.70;;;;;;;6.17;97.51;93468.03;5068973;28;20075;-73
2023/10/08 04:19:20;;;;;;;7.82;4.55;;;;;;;6.20;98.87;93493.16;5063423;28;20044;-73
2023/10/08 04:21:53;;;;;;;12.00;5.07;;;;;;;6.20;98.96;93487.28;5064843;28;20053;-73
2023/10/08 04:24:27;;;;;;;9.25;4.97;;;;;;;6.29;97.88;93488.78;5067816;28;20135;-73
2023/10/08 04:26:57;;;;;;;11.30;5.22;;;;;;;6.29;98.20;93488.78;5067454;28;20068;-74
2023/10/08 04:29:24;;;;;;;8.90;5.05;;;;;;;6.25;98.32;93490.88;5062639;28;20099;-74
2023/10/08 04:32:01;;;;;;;7.45;4.90;;;;;;;6.22;98.23;93472.59;5066964;28;20075;-73
2023/10/08 04:34:33;;;;;;;9.32;4.38;;;;;;;6.36;97.41;93491.41;5068593;28;20056;-73
2023/10/08 04:37:00;;;;;;;12.75;5.55;;;;;;;6.20;97.18;93475.31;5063160;28;20489;-73
2023/10/08 04:39:32;;;;;;;10.68;6.05;;;;;;;6.24;97.31;93486.75;5064476;28;20068;-74
2023/10/08 04:42:05;;;;;;;17.20;6.85;;;;;;;6.28;97.38;93485.44;5064120;28;20826;-74
2023/10/08 04:44:33;;;;;;;10.82;6.43;;;;;;;6.24;97.15;93485.94;5064461;28;20048;-74
2023/10/08 04:47:04;;;;;;;14.93;6.97;;;;;;;6.30;97.10;93487.03;5064839;28;20044;-73
2023/10/08 04:49:34;;;;;;;14.15;7.03;;;;;;;6.33;96.78;93484.91;5063977;28;20049;-73
2023/10/08 04:52:08;;;;;;;10.68;5.97;;;;;;;6.33;96.53;93484.91;5062174;28;20546;-73
2023/10/08 04:54:40;;;;;;;11.50;6.38;;;;;;;6.26;96.58;93479.72;5065505;28;20059;-73
2023/10/08 04:57:14;;;;;;;15.00;8.48;;;;;;;6.30;96.31;93482.72;5065893;28;20052;-74
2023/10/08 04:59:42;;;;;;;17.00;8.55;;;;;;;6.22;96.18;93478.50;5068608;28;20508;-73
2023/10/08 05:02:33;;;;;;;25.52;12.55;;;;;;;6.44;96.07;93488.00;5064910;28;20256;-73
2023/10/08 05:13:45;;;;;;;69.88;30.02;;;;;;;6.25;96.37;93474.81;5076582;28;20190;-73
2023/10/08 05:16:35;;;;;;;64.20;28.55;;;;;;;6.42;96.14;93490.72;5067579;28;20048;-73
2023/10/08 05:19:24;;;;;;;56.50;25.17;;;;;;;6.49;95.94;93490.81;5067282;28;20052;-73
2023/10/08 05:22:05;;;;;;;30.95;15.98;;;;;;;6.37;96.99;93491.25;5070824;28;20053;-72
2023/10/08 05:24:37;;;;;;;35.50;16.35;;;;;;;6.46;96.83;93491.94;5063750;28;20081;-73
2023/10/08 05:27:37;;;;;;;24.73;13.38;;;;;;;6.53;97.38;93490.25;5066986;28;20048;-72
2023/10/08 05:30:16;;;;;;;27.25;14.07;;;;;;;6.64;96.98;93483.13;5069982;28;20068;-73
2023/10/08 05:33:05;;;;;;;34.75;18.02;;;;;;;6.75;96.98;93485.22;5068691;28;20048;-74
2023/10/08 05:35:48;;;;;;;50.28;27.50;;;;;;;6.87;96.38;93489.84;5073694;28;20135;-73
2023/10/08 05:38:23;;;;;;;35.55;19.13;;;;;;;7.01;95.83;93493.34;5069869;28;20056;-73
2023/10/08 05:41:12;;;;;;;29.48;16.77;;;;;;;7.00;96.39;93494.31;5078682;28;20127;-73
2023/10/08 05:44:14;;;;;;;25.13;14.52;;;;;;;7.15;95.54;93486.63;5068400;28;20127;-73
2023/10/08 05:46:49;;;;;;;30.42;15.65;;;;;;;7.21;95.65;93488.44;5069763;28;20056;-73
2023/10/08 05:49:42;;;;;;;31.75;15.88;;;;;;;7.20;96.10;93481.75;5085755;28;20058;-73
2023/10/08 05:52:25;;;;;;;29.30;13.57;;;;;;;7.40;97.63;93501.63;5067407;28;20044;-74
2023/10/08 05:57:46;;;;;;;21.98;11.70;;;;;;;7.57;96.09;93497.84;5063072;28;20077;-74
2023/10/08 06:05:46;;;;;;;20.40;10.80;;;;;;;7.96;96.21;93513.66;5059582;28;20063;-74
2023/10/08 06:08:14;;;;;;;24.60;11.52;;;;;;;8.13;94.30;93513.38;5070642;28;20051;-73
2023/10/08 06:10:56;;;;;;;23.08;10.57;;;;;;;8.32;94.34;93519.63;5068931;28;20059;-74
2023/10/08 06:13:29;;;;;;;20.02;10.38;;;;;;;8.50;92.97;93515.78;5071209;28;20055;-74
2023/10/08 06:16:08;;;;;;;19.75;10.00;;;;;;;8.62;92.92;93527.13;5071789;28;20649;-73
2023/10/08 06:18:34;;;;;;;14.85;7.93;;;;;;;8.66;93.06;93522.41;5070090;28;20139;-73
2023/10/08 06:21:07;;;;;;;18.92;8.82;;;;;;;8.78;92.80;93512.38;5073839;28;20052;-73
2023/10/08 06:23:34;;;;;;;18.98;7.60;;;;;;;8.77;93.01;93518.50;5072964;28;21179;-73
2023/10/08 06:26:13;;;;;;;15.18;7.95;;;;;;;8.99;91.43;93524.31;5072918;28;20135;-74
2023/10/08 06:28:44;;;;;;;18.65;9.23;;;;;;;9.08;90.38;93530.06;5078814;28;20052;-73
2023/10/08 06:31:16;;;;;;;18.70;9.80;;;;;;;9.20;90.09;93528.50;5067655;28;20056;-73
2023/10/08 06:33:43;;;;;;;16.45;8.15;;;;;;;9.30;89.47;93524.81;5061655;28;20060;-73
2023/10/08 06:36:15;;;;;;;14.85;8.23;;;;;;;9.33;89.05;93520.06;5077944;28;20059;-73
2023/10/08 06:38:44;;;;;;;14.95;8.50;;;;;;;9.36;89.81;93516.34;5086190;28;20150;-73
2023/10/08 06:41:17;;;;;;;26.55;14.48;;;;;;;9.47;89.19;93528.59;5068225;28;20063;-73
2023/10/08 06:43:47;;;;;;;19.40;9.77;;;;;;;9.48;89.08;93525.03;5073046;28;20514;-74
2023/10/08 06:46:15;;;;;;;17.95;8.85;;;;;;;9.57;88.55;93517.13;5067793;28;20051;-73
2023/10/08 06:48:43;;;;;;;18.00;8.20;;;;;;;9.71;88.71;93510.25;5075594;28;20052;-74
2023/10/08 06:51:13;;;;;;;19.65;9.63;;;;;;;9.86;88.54;93517.78;5071188;28;20202;-73
2023/10/08 06:53:40;;;;;;;23.10;10.35;;;;;;;10.05;87.49;93516.19;5067338;28;20040;-73
2023/10/08 06:56:09;;;;;;;23.48;10.02;;;;;;;10.28;86.63;93515.75;5067930;28;20051;-73
2023/10/08 06:58:38;;;;;;;22.73;10.00;;;;;;;10.40;85.10;93508.25;5071791;28;20044;-73
2023/10/08 07:01:08;;;;;;;19.08;9.48;;;;;;;10.68;85.12;93519.25;5076830;28;20051;-74
2023/10/08 07:03:37;;;;;;;20.40;8.15;;;;;;;10.82;83.27;93512.28;5082622;28;20751;-75
2023/10/08 07:06:16;;;;;;;19.50;8.38;;;;;;;11.01;84.20;93518.34;5068400;28;20113;-75
2023/10/08 07:08:46;;;;;;;15.43;7.60;;;;;;;11.25;83.12;93518.63;5073092;28;20048;-75
2023/10/08 07:11:14;;;;;;;18.10;6.45;;;;;;;11.45;78.66;93518.53;5067392;28;20135;-75
2023/10/08 07:13:42;;;;;;;17.95;6.97;;;;;;;11.76;81.57;93503.31;5068189;28;20049;-74
2023/10/08 07:16:11;;;;;;;13.43;6.72;;;;;;;11.93;80.15;93495.06;5071099;28;20189;-74
2023/10/08 07:18:38;;;;;;;17.60;7.38;;;;;;;12.24;79.14;93496.81;5085492;28;20492;-75
2023/10/08 07:21:11;;;;;;;16.95;7.80;;;;;;;12.53;74.73;93504.84;5070043;28;20076;-75
2023/10/08 07:23:55;;;;;;;17.00;7.35;;;;;;;12.65;73.21;93488.66;5067942;28;20087;-75
2023/10/08 07:26:24;;;;;;;20.52;8.10;;;;;;;12.69;73.32;93459.66;5067370;28;20052;-75
2023/10/08 07:28:53;;;;;;;18.65;7.65;;;;;;;13.15;74.48;93494.63;5067818;28;20055;-75
2023/10/08 07:31:21;;;;;;;17.27;7.78;;;;;;;13.33;72.76;93499.72;5063656;28;20051;-75
2023/10/08 07:33:55;;;;;;;16.50;7.53;;;;;;;13.59;72.89;93497.84;5061840;28;20126;-75
2023/10/08 07:36:23;;;;;;;13.55;6.97;;;;;;;13.75;68.88;93486.06;5079034;28;20048;-75
2023/10/08 07:38:50;;;;;;;15.80;7.43;;;;;;;14.13;67.89;93491.06;5065294;28;20048;-75
2023/10/08 07:41:19;;;;;;;19.98;9.00;;;;;;;14.37;66.78;93489.25;5067902;28;20040;-75
2023/10/08 07:43:53;;;;;;;14.88;7.72;;;;;;;14.52;65.98;93482.81;5069050;28;20493;-75
2023/10/08 07:46:21;;;;;;;18.15;8.07;;;;;;;14.69;65.76;93481.09;5071972;28;20051;-76
2023/10/08 07:48:50;;;;;;;18.10;7.80;;;;;;;14.92;67.21;93473.53;5068404;28;20060;-75
2023/10/08 07:51:21;;;;;;;16.42;7.68;;;;;;;15.13;66.29;93461.78;5077569;28;20054;-75
2023/10/08 07:53:48;;;;;;;19.35;7.53;;;;;;;15.54;65.23;93479.00;5074453;28;20048;-75
2023/10/08 07:56:17;;;;;;;21.48;9.98;;;;;;;15.88;62.80;93477.25;5069781;28;20404;-76
2023/10/08 07:58:44;;;;;;;14.95;5.50;;;;;;;16.08;57.46;93465.66;5077288;28;20102;-75
2023/10/08 08:01:13;;;;;;;13.48;5.60;;;;;;;16.48;58.60;93479.38;5071650;28;20059;-75
2023/10/08 08:03:42;;;;;;;9.85;5.70;;;;;;;16.92;55.63;93468.25;5071563;28;20676;-75
2023/10/08 08:06:10;;;;;;;10.07;4.22;;;;;;;17.24;52.15;93482.38;5072284;28;20059;-75
2023/10/08 08:08:38;;;;;;;10.73;5.07;;;;;;;17.55;52.86;93472.25;5074832;28;20434;-75
2023/10/08 08:11:07;;;;;;;8.35;3.70;;;;;;;17.96;51.31;93471.03;5088346;28;20044;-75
2023/10/08 08:13:34;;;;;;;6.05;3.25;;;;;;;18.11;47.04;93463.38;5078469;28;20086;-76
2023/10/08 08:16:09;;;;;;;7.70;3.60;;;;;;;18.32;46.99;93479.09;5076435;28;20129;-73
2023/10/08 08:18:38;;;;;;;6.30;3.20;;;;;;;18.40;44.67;93475.25;5070791;28;20076;-73
2023/10/08 08:21:14;;;;;;;6.10;2.88;;;;;;;18.50;44.31;93470.09;5076642;28;20555;-73
2023/10/08 08:23:42;;;;;;;5.75;2.67;;;;;;;18.36;44.23;93466.38;5071992;28;20110;-73
2023/10/08 08:26:26;;;;;;;7.03;2.85;;;;;;;18.51;43.12;93456.06;5070787;28;20085;-73
2023/10/08 08:28:54;;;;;;;5.32;2.47;;;;;;;18.64;44.18;93452.22;5074771;28;20052;-73
2023/10/08 08:31:21;;;;;;;6.53;2.88;;;;;;;18.72;43.26;93456.16;5074879;28;20101;-74
2023/10/08 08:33:56;;;;;;;10.27;4.22;;;;;;;18.87;41.35;93442.41;5081179;28;20808;-74
2023/10/08 08:36:25;;;;;;;9.60;3.70;;;;;;;19.07;41.96;93439.09;5074767;28;20515;-73
2023/10/08 08:38:52;;;;;;;10.93;4.40;;;;;;;19.28;40.71;93459.19;5069978;28;20496;-73
2023/10/08 08:41:20;;;;;;;6.68;3.17;;;;;;;19.30;41.86;93454.53;5072568;28;20137;-74
2023/10/08 08:43:56;;;;;;;6.38;2.75;;;;;;;19.35;41.65;93428.50;5071040;28;20740;-73
2023/10/08 08:46:28;;;;;;;5.88;2.83;;;;;;;19.67;41.32;93448.28;5077664;28;20091;-73
2023/10/08 08:48:58;;;;;;;8.02;3.25;;;;;;;19.82;40.67;93442.31;5070851;28;20056;-73
2023/10/08 08:51:26;;;;;;;8.80;2.90;;;;;;;20.02;42.96;93438.94;5071943;28;20768;-73
2023/10/08 08:53:53;;;;;;;11.73;3.78;;;;;;;20.10;40.18;93423.78;5074603;28;20519;-72
2023/10/08 08:56:22;;;;;;;7.43;3.17;;;;;;;20.45;40.16;93444.84;5072551;28;20056;-73
2023/10/08 08:58:50;;;;;;;6.75;3.03;;;;;;;20.26;39.12;93455.84;5070672;28;20051;-74
2023/10/08 09:01:19;;;;;;;7.63;3.13;;;;;;;20.23;40.20;93425.06;5070428;28;20416;-73
2023/10/08 09:03:47;;;;;;;7.18;3.17;;;;;;;20.56;39.30;93446.38;5072178;28;20420;-73
2023/10/08 09:06:15;;;;;;;10.13;3.10;;;;;;;20.74;38.50;93439.75;5070509;28;20059;-73
2023/10/08 09:08:45;;;;;;;10.13;3.63;;;;;;;20.93;38.02;93441.81;5070339;28;20484;-73
2023/10/08 09:11:16;;;;;;;10.50;3.95;;;;;;;21.20;38.76;93444.03;5079262;28;20928;-73
2023/10/08 09:13:43;;;;;;;9.55;2.67;;;;;;;21.52;39.75;93434.13;5073422;28;20585;-73
2023/10/08 09:16:13;;;;;;;10.63;3.35;;;;;;;21.50;36.59;93433.66;5077276;28;20061;-73
2023/10/08 09:18:42;;;;;;;11.10;3.25;;;;;;;21.61;36.63;93437.75;5074339;28;20131;-73
2023/10/08 09:21:12;;;;;;;14.23;4.25;;;;;;;21.21;37.95;93431.75;5073274;28;20137;-73
2023/10/08 09:23:47;;;;;;;9.85;3.50;;;;;;;21.30;37.95;93430.09;5080314;28;20048;-73
2023/10/08 09:26:14;;;;;;;8.95;3.55;;;;;;;21.23;37.23;93430.44;5070223;28;20075;-73
2023/10/08 09:28:46;;;;;;;7.97;2.80;;;;;;;21.22;37.33;93423.66;5075923;28;20139;-73
2023/10/08 09:31:13;;;;;;;7.20;3.45;;;;;;;21.16;37.36;93419.47;5069360;28;20485;-73
2023/10/08 09:33:41;;;;;;;10.35;2.97;;;;;;;21.26;38.65;93429.09;5070129;28;20045;-73
2023/10/08 09:36:10;;;;;;;7.55;3.13;;;;;;;21.59;40.43;93408.50;5070332;28;20040;-73
2023/10/08 09:38:38;;;;;;;6.43;3.00;;;;;;;21.76;36.74;93413.34;5075208;28;20401;-73
2023/10/08 09:41:08;;;;;;;9.05;3.65;;;;;;;21.88;36.83;93406.97;5082035;28;20040;-73
2023/10/08 09:43:36;;;;;;;9.45;3.17;;;;;;;21.86;36.43;93404.63;5074960;28;20055;-74
2023/10/08 09:46:11;;;;;;;8.48;2.88;;;;;;;21.76;36.71;93389.81;5069141;28;20048;-73
2023/10/08 09:48:40;;;;;;;13.13;3.03;;;;;;;21.86;37.38;93378.47;5069451;28;20040;-73
2023/10/08 09:51:12;;;;;;;9.63;3.33;;;;;;;22.08;36.25;93390.28;5071960;28;20079;-73
2023/10/08 09:53:48;;;;;;;6.13;2.80;;;;;;;22.13;37.37;93387.63;5073313;28;20061;-73
2023/10/08 09:56:17;;;;;;;7.47;2.60;;;;;;;21.99;35.94;93389.34;5069657;28;20059;-73
2023/10/08 09:58:45;;;;;;;5.35;2.45;;;;;;;22.09;36.38;93389.25;5061427;28;20574;-74
2023/10/08 10:01:13;;;;;;;4.78;2.33;;;;;;;21.77;36.35;93393.22;5084394;28;20059;-74
2023/10/08 10:03:42;;;;;;;7.75;2.70;;;;;;;21.63;36.54;93385.19;5066350;28;20844;-73
2023/10/08 10:06:14;;;;;;;6.47;2.33;;;;;;;21.69;36.90;93384.09;5077095;28;20668;-73
2023/10/08 10:08:45;;;;;;;5.18;2.30;;;;;;;21.75;37.58;93385.63;5077599;28;20123;-76
2023/10/08 10:11:12;;;;;;;6.65;2.95;;;;;;;22.10;37.41;93377.72;5074665;28;20052;-74
2023/10/08 10:13:47;;;;;;;6.10;2.58;;;;;;;22.10;36.66;93366.47;5066427;28;20057;-73
2023/10/08 10:16:18;;;;;;;8.17;3.13;;;;;;;22.12;37.10;93378.22;5070087;28;20057;-76
2023/10/08 10:18:46;;;;;;;4.40;2.15;;;;;;;22.29;36.98;93366.53;5066587;28;20513;-74
2023/10/08 10:21:27;;;;;;;7.28;2.58;;;;;;;22.21;36.66;93357.47;5066601;28;20100;-74
2023/10/08 10:23:54;;;;;;;4.90;2.15;;;;;;;22.52;37.27;93366.78;5067901;28;20040;-74
2023/10/08 10:26:28;;;;;;;5.32;2.40;;;;;;;22.66;36.21;93366.91;5072096;28;20075;-74
2023/10/08 10:29:22;;;;;;;6.38;2.70;;;;;;;22.36;36.61;93364.34;5071401;28;20053;-74
2023/10/08 10:31:53;;;;;;;7.35;2.70;;;;;;;22.60;36.55;93358.34;5067758;28;20045;-74
2023/10/08 10:34:21;;;;;;;6.55;2.78;;;;;;;22.76;37.09;93343.22;5068643;28;20519;-73
2023/10/08 10:36:50;;;;;;;6.13;2.28;;;;;;;22.89;36.12;93325.22;5067814;28;20052;-74
2023/10/08 10:39:26;;;;;;;3.95;1.73;;;;;;;23.23;36.52;93347.78;5067961;28;20049;-74
2023/10/08 10:41:57;;;;;;;3.80;1.83;;;;;;;23.52;35.75;93348.69;5066909;28;20455;-74
2023/10/08 10:44:25;;;;;;;4.65;1.90;;;;;;;23.57;35.36;93344.16;5070829;28;20907;-74
2023/10/08 10:47:25;;;;;;;4.28;1.70;;;;;;;23.74;35.21;93330.47;5070149;28;20079;-74
2023/10/08 10:49:48;;;;;;;4.32;1.65;;;;;;;23.99;34.86;93335.56;5067312;28;20051;-74
2023/10/08 10:52:19;;;;;;;6.30;2.47;;;;;;;24.21;36.16;93327.03;5071212;28;20048;-74
2023/10/08 10:54:58;;;;;;;9.13;2.15;;;;;;;24.37;34.34;93324.09;5071629;28;20824;-74
2023/10/08 10:57:34;;;;;;;7.88;2.38;;;;;;;24.64;35.73;93314.63;5071271;28;20056;-74
2023/10/08 11:00:18;;;;;;;4.18;2.00;;;;;;;24.89;34.19;93312.53;5069339;28;20397;-74
2023/10/08 11:02:48;;;;;;;5.82;2.40;;;;;;;24.85;34.58;93320.22;5068060;28;20059;-74
2023/10/08 11:05:19;;;;;;;5.68;2.38;;;;;;;24.58;34.83;93316.59;5068785;28;20084;-74
2023/10/08 11:07:48;;;;;;;8.18;1.95;;;;;;;24.34;35.53;93320.22;5081689;28;20512;-74
2023/10/08 11:10:16;;;;;;;6.25;1.75;;;;;;;24.26;36.13;93297.28;5073121;28;20050;-74
2023/10/08 11:12:52;;;;;;;4.40;1.73;;;;;;;24.05;36.16;93312.59;5071800;28;20508;-74
2023/10/08 11:15:23;;;;;;;5.07;1.70;;;;;;;23.73;36.52;93312.41;5065653;28;20560;-73
2023/10/08 11:17:52;;;;;;;5.30;1.77;;;;;;;23.74;36.86;93295.59;5065169;28;20045;-73
2023/10/08 11:20:25;;;;;;;5.18;1.73;;;;;;;23.81;37.15;93306.50;5065044;28;20550;-74
2023/10/08 11:22:53;;;;;;;5.22;1.70;;;;;;;23.70;37.75;93303.25;5068546;28;20044;-74
2023/10/08 11:25:27;;;;;;;4.03;2.05;;;;;;;23.74;37.51;93298.22;5066277;28;20500;-74
2023/10/08 11:28:01;;;;;;;4.28;1.92;;;;;;;23.45;37.58;93265.97;5072787;28;20052;-74
2023/10/08 11:30:31;;;;;;;5.60;2.10;;;;;;;23.71;37.69;93290.94;5068643;28;20153;-74
2023/10/08 11:32:59;;;;;;;4.60;1.60;;;;;;;23.47;37.30;93291.88;5072974;28;20575;-74
2023/10/08 11:35:27;;;;;;;6.53;2.13;;;;;;;23.64;37.74;93286.06;5076055;28;20131;-74
2023/10/08 11:38:00;;;;;;;6.68;1.80;;;;;;;23.65;37.54;93271.88;5072126;28;20523;-74
2023/10/08 11:40:29;;;;;;;6.05;1.88;;;;;;;23.65;38.49;93286.84;5075766;28;20075;-74
2023/10/08 11:42:59;;;;;;;6.07;1.90;;;;;;;23.68;37.97;93281.81;5068742;28;20133;-74
2023/10/08 11:45:26;;;;;;;4.50;2.40;;;;;;;23.74;37.90;93282.47;5070026;28;20056;-74
2023/10/08 11:48:03;;;;;;;6.05;2.00;;;;;;;23.73;37.14;93284.34;5070921;28;20048;-74
2023/10/08 11:50:34;;;;;;;6.72;3.30;;;;;;;23.96;38.46;93283.66;5069666;28;20952;-74
2023/10/08 11:53:03;;;;;;;5.03;2.58;;;;;;;23.92;37.80;93285.31;5072183;28;20409;-74
2023/10/08 11:55:34;;;;;;;5.50;2.03;;;;;;;23.66;37.83;93268.22;5077623;28;20040;-73
2023/10/08 11:58:01;;;;;;;6.20;1.80;;;;;;;23.59;37.63;93267.81;5066181;28;20048;-73
2023/10/08 12:00:28;;;;;;;8.52;2.08;;;;;;;23.61;38.67;93279.56;5082269;28;20051;-74
2023/10/08 12:02:56;;;;;;;9.95;2.17;;;;;;;23.29;39.54;93281.13;5085638;28;20052;-73
2023/10/08 12:05:24;;;;;;;9.93;2.13;;;;;;;23.22;39.37;93260.53;5072956;28;20040;-74
2023/10/08 12:07:52;;;;;;;7.63;2.90;;;;;;;22.87;39.66;93235.69;5071335;28;20048;-74
2023/10/08 12:10:22;;;;;;;9.00;2.10;;;;;;;22.91;39.46;93252.41;5067116;28;20143;-74
2023/10/08 12:12:52;;;;;;;6.70;2.13;;;;;;;22.90;39.78;93266.53;5067088;28;20137;-74